Time;durP1;ratioP1;P1;durP2;ratioP2;P2;SDS_P1;SDS_P2;PMS_P1;PMS_P2;Temp;Humidity;BMP_temperature;BMP_pressure;BME280_temperature;BME280_humidity;BME280_pressure;Samples;Min_cycle;Max_cycle;Signal;HPM_P1;HPM_P2
2022/12/19 00:01:54;;;;;;;10.43;7.72;;;;;;;19.09;45.46;98216.88;10471049;28;20053;-79
2022/12/19 00:07:13;;;;;;;9.02;7.28;;;;;;;19.08;45.58;98211.75;10404513;28;20515;-79
2022/12/19 00:12:33;;;;;;;9.63;6.90;;;;;;;19.06;45.71;98206.63;10442270;28;20049;-79
2022/12/19 00:17:52;;;;;;;8.43;7.13;;;;;;;19.05;45.68;98196.09;10455843;28;20049;-79
2022/12/19 00:23:11;;;;;;;10.80;7.53;;;;;;;19.03;45.81;98199.09;10441305;28;20048;-79
2022/12/19 00:28:30;;;;;;;9.30;7.15;;;;;;;19.02;45.71;98189.38;10454337;28;20055;-79
2022/12/19 00:33:50;;;;;;;9.63;6.82;;;;;;;18.99;45.65;98181.84;10460336;28;20044;-78
2022/12/19 00:39:10;;;;;;;7.93;6.65;;;;;;;18.99;45.89;98189.94;10457290;28;20060;-79
2022/12/19 00:44:30;;;;;;;8.20;6.90;;;;;;;18.96;45.80;98195.94;10429519;28;20434;-79
2022/12/19 00:49:50;;;;;;;8.05;6.53;;;;;;;18.96;45.83;98177.03;10427512;28;20507;-79
2022/12/19 00:55:10;;;;;;;9.00;7.05;;;;;;;18.93;45.78;98154.13;10467077;28;20053;-78
2022/12/19 01:00:29;;;;;;;8.30;6.50;;;;;;;18.91;45.74;98201.38;10454459;28;20048;-79
2022/12/19 01:05:50;;;;;;;9.88;6.82;;;;;;;18.90;45.62;98191.69;10437358;28;20049;-79
2022/12/19 01:11:11;;;;;;;8.68;6.38;;;;;;;18.88;45.86;98194.66;10426398;28;20053;-79
2022/12/19 01:16:30;;;;;;;7.47;5.90;;;;;;;18.87;45.83;98170.66;10439764;28;20056;-79
2022/12/19 01:21:51;;;;;;;7.72;6.43;;;;;;;18.85;45.72;98162.03;10454576;28;20099;-79
2022/12/19 01:27:11;;;;;;;7.32;6.15;;;;;;;18.83;45.82;98140.72;10440191;28;20411;-78
2022/12/19 01:32:35;;;;;;;7.43;6.47;;;;;;;18.80;45.70;98145.88;10439890;28;20052;-78
2022/12/19 01:37:54;;;;;;;8.10;6.50;;;;;;;18.78;45.69;98141.53;10408151;28;20053;-79
2022/12/19 01:43:14;;;;;;;7.38;6.30;;;;;;;18.76;45.51;98130.22;10453155;28;20045;-78
2022/12/19 01:48:36;;;;;;;7.82;6.22;;;;;;;18.74;45.47;98121.63;10457830;28;20059;-78
2022/12/19 01:54:00;;;;;;;7.53;5.72;;;;;;;18.73;45.55;98128.09;10432835;28;20432;-79
2022/12/19 01:59:28;;;;;;;7.68;6.07;;;;;;;18.71;45.68;98138.38;10441819;28;20056;-79
2022/12/19 02:04:47;;;;;;;7.50;6.28;;;;;;;18.71;45.55;98129.47;10441641;28;20405;-78
2022/12/19 02:10:07;;;;;;;8.63;6.28;;;;;;;18.68;45.57;98120.06;10432893;28;20057;-78
2022/12/19 02:15:32;;;;;;;7.63;6.57;;;;;;;18.67;45.54;98118.44;10436263;28;20041;-79
2022/12/19 02:21:19;;;;;;;6.90;5.57;;;;;;;18.65;45.40;98101.72;10447800;28;20056;-79
2022/12/19 02:26:57;;;;;;;6.85;6.00;;;;;;;18.62;45.48;98105.03;10447335;28;20061;-79
2022/12/19 02:32:18;;;;;;;;;;;;;;;18.61;44.91;98105.31;10447274;28;20065;-79
2022/12/19 02:37:47;;;;;;;7.07;6.03;;;;;;;18.58;45.43;98085.88;10447246;28;20399;-79
2022/12/19 02:43:09;;;;;;;6.17;5.57;;;;;;;18.57;45.33;98084.25;10449696;28;20136;-79
2022/12/19 02:48:29;;;;;;;6.00;5.13;;;;;;;18.54;45.37;98075.94;10447423;28;20115;-79
2022/12/19 02:53:49;;;;;;;6.32;5.72;;;;;;;18.53;45.27;98079.75;10458436;28;20056;-79
2022/12/19 02:59:34;;;;;;;7.28;5.68;;;;;;;18.52;45.13;98083.50;10472112;28;20100;-79
2022/12/19 03:05:18;;;;;;;7.10;6.07;;;;;;;18.50;45.27;98085.69;10453656;28;20052;-79
2022/12/19 03:10:43;;;;;;;6.95;5.57;;;;;;;18.47;45.21;98081.69;10462963;28;20100;-79
2022/12/19 03:16:04;;;;;;;6.90;5.90;;;;;;;18.47;45.17;98083.59;10417756;28;20060;-79
2022/12/19 03:21:26;;;;;;;6.57;5.47;;;;;;;18.44;45.19;98082.25;10442566;28;20049;-79
2022/12/19 03:26:53;;;;;;;6.03;5.05;;;;;;;18.42;45.20;98079.03;10432842;28;20442;-78
2022/12/19 03:32:14;;;;;;;5.88;5.20;;;;;;;18.40;45.07;98072.31;10438038;28;20053;-78
2022/12/19 03:37:36;;;;;;;7.93;5.93;;;;;;;18.40;45.19;98085.81;10429689;28;20057;-79
2022/12/19 03:43:07;;;;;;;6.10;5.15;;;;;;;18.36;45.00;98075.56;10432137;28;20053;-79
2022/12/19 03:48:41;;;;;;;6.40;4.75;;;;;;;18.34;44.92;98069.66;10457916;28;20056;-79
2022/12/19 03:54:03;;;;;;;5.57;5.03;;;;;;;18.32;45.14;98074.53;10456718;28;20497;-79
2022/12/19 03:59:35;;;;;;;6.13;5.05;;;;;;;18.31;44.85;98083.72;10443043;28;20413;-79
2022/12/19 04:04:59;;;;;;;5.85;4.93;;;;;;;18.30;44.82;98098.28;10438299;28;20045;-78
2022/12/19 04:10:21;;;;;;;6.55;5.05;;;;;;;18.27;44.78;98093.47;10427289;28;20452;-79
2022/12/19 04:16:12;;;;;;;6.03;5.03;;;;;;;18.26;44.63;98102.66;10441854;28;20385;-79
2022/12/19 04:21:38;;;;;;;5.90;4.93;;;;;;;18.25;44.73;98108.31;10439105;28;20095;-79
2022/12/19 04:26:58;;;;;;;6.22;5.20;;;;;;;18.23;44.81;98086.22;10412896;28;20049;-78
2022/12/19 04:32:18;;;;;;;5.40;4.78;;;;;;;18.22;45.00;98084.63;10441662;28;20115;-78
2022/12/19 04:37:38;;;;;;;6.63;5.03;;;;;;;18.19;44.79;98067.13;10382897;28;20061;-78
2022/12/19 04:42:57;;;;;;;6.05;5.10;;;;;;;18.18;44.90;98074.41;10402269;28;20405;-78
2022/12/19 04:48:17;;;;;;;5.78;5.10;;;;;;;18.17;44.71;98072.81;10413405;28;20107;-78
2022/12/19 04:53:36;;;;;;;5.88;5.10;;;;;;;18.15;44.74;98055.28;10400402;28;20069;-78
2022/12/19 04:58:59;;;;;;;5.30;4.63;;;;;;;18.13;44.75;98036.69;10385211;28;20053;-79
2022/12/19 05:04:19;;;;;;;5.45;4.90;;;;;;;18.11;44.71;98055.06;10413263;28;20512;-78
2022/12/19 05:09:39;;;;;;;5.43;4.70;;;;;;;18.10;44.67;98066.13;10385516;28;20100;-78
2022/12/19 05:14:58;;;;;;;5.40;4.63;;;;;;;18.07;44.78;98047.81;10411174;28;20057;-78
2022/12/19 05:20:18;;;;;;;5.60;5.00;;;;;;;18.08;44.81;98038.63;10412106;28;20045;-78
2022/12/19 05:25:37;;;;;;;5.30;4.80;;;;;;;18.05;44.69;98037.28;10410661;28;20048;-79
2022/12/19 05:31:03;;;;;;;5.45;4.88;;;;;;;18.06;44.54;98059.69;10398141;28;20057;-79
2022/12/19 05:36:22;;;;;;;5.72;4.75;;;;;;;18.07;44.54;98072.06;10404098;28;20100;-79
2022/12/19 05:41:42;;;;;;;6.00;4.97;;;;;;;18.06;44.63;98071.28;10390889;28;20448;-79
2022/12/19 05:47:01;;;;;;;6.78;5.22;;;;;;;18.07;44.64;98085.56;10412035;28;20049;-79
2022/12/19 05:52:21;;;;;;;5.18;4.65;;;;;;;18.08;44.62;98050.22;10412008;28;20053;-79
2022/12/19 05:57:40;;;;;;;5.00;4.50;;;;;;;18.09;44.71;98065.34;10401738;28;20061;-79
2022/12/19 06:03:00;;;;;;;5.45;4.63;;;;;;;18.10;44.63;98069.63;10405496;28;20057;-78
2022/12/19 06:08:19;;;;;;;5.20;4.70;;;;;;;18.12;44.58;98066.66;10386779;28;20054;-79
2022/12/19 06:13:39;;;;;;;5.78;4.50;;;;;;;18.14;44.67;98076.06;10366028;23;20390;-57
2022/12/19 06:18:59;;;;;;;5.00;4.30;;;;;;;18.18;44.77;98084.38;10331698;28;20062;-58
2022/12/19 06:24:18;;;;;;;5.28;4.60;;;;;;;18.18;44.63;98071.69;10344267;28;20117;-57
2022/12/19 06:29:38;;;;;;;7.22;5.35;;;;;;;18.21;44.54;98083.00;10344225;28;20406;-57
2022/12/19 06:34:57;;;;;;;5.32;4.53;;;;;;;18.23;44.60;98087.06;10336081;28;20059;-58
2022/12/19 06:42:21;;;;;;;5.47;4.88;;;;;;;18.25;44.54;98086.75;10338623;28;20111;-57
2022/12/19 06:45:57;;;;;;;7.32;5.07;;;;;;;18.28;44.88;98105.06;10337843;28;20058;-57
2022/12/19 06:51:16;;;;;;;12.10;5.45;;;;;;;18.30;44.72;98105.59;10338231;28;20054;-57
2022/12/19 06:56:37;;;;;;;13.60;6.32;;;;;;;18.33;44.55;98107.72;10338110;28;20062;-57
2022/12/19 07:02:10;;;;;;;12.05;6.57;;;;;;;18.36;44.68;98080.16;10321543;28;20155;-57
2022/12/19 07:07:29;;;;;;;12.98;5.97;;;;;;;18.39;44.95;98060.72;10332426;28;20066;-58
2022/12/19 07:12:49;;;;;;;13.32;7.07;;;;;;;18.42;44.91;98065.53;10321088;28;20058;-58
2022/12/19 07:18:09;;;;;;;14.05;6.35;;;;;;;18.45;45.07;98072.28;10329599;28;20062;-58
2022/12/19 07:23:28;;;;;;;13.55;6.18;;;;;;;18.48;45.05;98077.88;10335639;28;20074;-57
2022/12/19 07:28:48;;;;;;;12.77;6.50;;;;;;;18.49;44.86;98079.50;10328325;28;20509;-58
2022/12/19 07:34:08;;;;;;;15.05;7.00;;;;;;;18.55;45.25;98091.84;10336137;28;20047;-57
2022/12/19 07:39:28;;;;;;;12.80;7.40;;;;;;;18.57;44.82;98111.25;10336255;28;20072;-58
2022/12/19 07:44:48;;;;;;;13.68;7.50;;;;;;;18.59;44.75;98127.16;10334722;28;20257;-57
2022/12/19 07:50:07;;;;;;;12.77;6.80;;;;;;;18.63;44.91;98117.41;10332211;28;20532;-57
2022/12/19 07:55:27;;;;;;;12.35;6.80;;;;;;;18.66;45.12;98122.25;10341014;28;20069;-58
2022/12/19 08:00:57;;;;;;;10.68;6.90;;;;;;;18.71;44.79;98126.78;10329379;28;20057;-57
2022/12/19 08:06:18;;;;;;;12.25;7.00;;;;;;;18.73;45.02;98133.50;10324329;28;20062;-57
2022/12/19 08:11:38;;;;;;;10.25;6.25;;;;;;;18.77;44.85;98131.81;10334373;28;20082;-57
2022/12/19 08:16:57;;;;;;;11.07;6.63;;;;;;;18.82;44.92;98157.19;10311019;28;20059;-57
2022/12/19 08:22:16;;;;;;;12.32;9.30;;;;;;;18.85;43.19;98140.44;10303620;28;20051;-58
2022/12/19 08:27:36;;;;;;;10.02;6.72;;;;;;;18.85;41.62;98132.31;10326464;28;20058;-58
2022/12/19 08:32:55;;;;;;;13.05;8.80;;;;;;;18.90;42.78;98124.19;10320772;28;20065;-58
2022/12/19 08:38:14;;;;;;;13.07;8.23;;;;;;;18.93;42.65;98115.50;10325204;28;20059;-58
2022/12/19 08:43:34;;;;;;;13.85;8.25;;;;;;;18.96;42.91;98104.13;10333341;28;20047;-57
2022/12/19 08:48:54;;;;;;;10.85;7.90;;;;;;;18.99;42.82;98087.31;10329653;28;20058;-58
2022/12/19 08:54:13;;;;;;;12.20;8.52;;;;;;;19.01;43.07;98060.84;10307035;28;20054;-58
2022/12/19 08:59:32;;;;;;;12.35;8.07;;;;;;;19.03;42.97;98045.16;10328047;28;20058;-58
2022/12/19 09:04:52;;;;;;;12.27;7.68;;;;;;;19.05;42.83;98029.47;10326988;28;20050;-58
2022/12/19 09:10:11;;;;;;;12.20;7.95;;;;;;;19.08;42.94;98018.06;10331853;28;20054;-58
2022/12/19 09:15:31;;;;;;;10.93;7.55;;;;;;;19.09;42.82;98011.59;10345351;28;20090;-57
2022/12/19 09:20:53;;;;;;;11.02;7.90;;;;;;;19.11;42.84;97990.50;10331855;28;20062;-58
2022/12/19 09:26:13;;;;;;;16.60;11.98;;;;;;;19.09;38.39;97964.84;10326280;28;20058;-58
2022/12/19 09:31:33;;;;;;;11.02;8.73;;;;;;;19.11;41.47;97949.97;10331672;28;20057;-58
2022/12/19 09:36:53;;;;;;;11.55;8.50;;;;;;;19.16;41.72;97973.41;10332568;28;20089;-58
2022/12/19 09:42:18;;;;;;;10.45;7.93;;;;;;;19.19;41.64;97959.31;10330629;28;20061;-58
2022/12/19 09:47:41;;;;;;;12.43;8.48;;;;;;;19.22;41.67;97980.34;10331625;28;20073;-58
2022/12/19 09:53:16;;;;;;;12.25;7.88;;;;;;;19.24;41.21;97970.03;10331031;28;20118;-58
2022/12/19 09:58:46;;;;;;;10.93;7.75;;;;;;;19.28;41.94;97951.34;10316893;28;20054;-58
2022/12/19 10:04:11;;;;;;;10.73;7.47;;;;;;;19.33;41.52;97929.66;10315666;28;20525;-58
2022/12/19 10:09:33;;;;;;;11.27;8.63;;;;;;;19.35;41.04;97913.94;10336257;28;20058;-57
2022/12/19 10:15:02;;;;;;;11.07;7.95;;;;;;;19.37;41.01;97971.19;10352151;28;20050;-58
2022/12/19 10:20:51;;;;;;;10.38;8.02;;;;;;;19.40;40.92;97978.69;10351895;28;20510;-57
2022/12/19 10:26:20;;;;;;;10.52;7.45;;;;;;;19.43;41.02;97999.75;10316412;28;20058;-58
2022/12/19 10:32:15;;;;;;;9.35;7.20;;;;;;;19.45;40.90;97986.75;10338560;28;20050;-58
2022/12/19 10:37:43;;;;;;;7.90;6.78;;;;;;;19.49;41.03;97992.38;10330478;28;20066;-55
2022/12/19 10:43:13;;;;;;;7.90;7.05;;;;;;;19.50;40.89;98002.88;10338486;28;20059;-58
2022/12/19 10:48:32;;;;;;;10.30;7.30;;;;;;;19.54;41.38;98005.78;10322920;28;20062;-58
2022/12/19 10:53:56;;;;;;;8.70;7.07;;;;;;;19.56;41.16;97985.50;10351095;28;20108;-58
2022/12/19 10:59:18;;;;;;;8.88;7.00;;;;;;;19.60;41.23;97990.28;10336816;28;20422;-58
2022/12/19 11:04:38;;;;;;;8.73;7.10;;;;;;;19.62;41.11;97977.28;10350416;28;20417;-58
2022/12/19 11:09:57;;;;;;;7.97;6.68;;;;;;;19.65;41.28;97982.09;10336742;28;20059;-58
2022/12/19 11:15:17;;;;;;;7.57;6.22;;;;;;;19.68;41.28;97984.19;10336490;28;20478;-58
2022/12/19 11:20:37;;;;;;;9.45;6.47;;;;;;;19.70;40.94;97982.81;10336588;28;20062;-57
2022/12/19 11:26:00;;;;;;;7.13;6.38;;;;;;;19.73;41.25;97989.56;10324298;28;20510;-58
2022/12/19 11:31:22;;;;;;;8.38;6.25;;;;;;;19.76;41.38;97980.88;10336788;28;20062;-56
2022/12/19 11:37:03;;;;;;;7.55;6.20;;;;;;;19.79;41.57;97972.16;10336260;28;20066;-58
2022/12/19 11:42:36;;;;;;;8.10;6.18;;;;;;;19.82;41.45;97954.56;10335688;28;20442;-58
2022/12/19 11:48:11;;;;;;;7.47;5.80;;;;;;;19.84;41.38;97960.47;10321445;28;20141;-58
2022/12/19 11:53:38;;;;;;;15.48;12.50;;;;;;;19.84;41.38;97960.47;10334136;28;20046;-58
2022/12/19 11:59:26;;;;;;;8.35;7.15;;;;;;;19.87;40.03;97943.63;10335519;28;20066;-59
2022/12/19 12:05:04;;;;;;;9.18;7.20;;;;;;;19.89;40.17;97952.25;10330435;28;20054;-58
2022/12/19 12:10:24;;;;;;;8.53;7.23;;;;;;;19.91;40.49;97918.38;10334967;28;20081;-59
2022/12/19 12:15:55;;;;;;;8.32;6.65;;;;;;;19.95;40.40;97940.22;10334879;28;20108;-59
2022/12/19 12:21:36;;;;;;;8.07;6.45;;;;;;;19.97;40.35;97937.22;10334732;28;20054;-59
2022/12/19 12:27:11;;;;;;;7.97;6.85;;;;;;;19.99;40.22;97930.41;10335073;28;20413;-59
2022/12/19 12:32:57;;;;;;;7.65;6.65;;;;;;;20.02;40.52;97912.81;10318619;28;20050;-57
2022/12/19 12:38:29;;;;;;;7.00;6.05;;;;;;;20.04;40.55;97905.97;10333875;28;20066;-59
2022/12/19 12:44:06;;;;;;;7.75;6.40;;;;;;;20.05;40.73;97901.38;10333936;28;20054;-59
2022/12/19 12:49:47;;;;;;;7.28;6.35;;;;;;;20.08;40.89;97881.84;10318978;28;20126;-58
2022/12/19 12:55:26;;;;;;;7.30;5.95;;;;;;;20.09;40.94;97872.59;10331603;28;20061;-58
2022/12/19 13:01:06;;;;;;;6.32;5.47;;;;;;;20.13;40.95;97873.59;10333320;28;20425;-59
2022/12/19 13:06:31;;;;;;;9.02;6.45;;;;;;;20.15;40.88;97868.72;10333064;28;20073;-59
2022/12/19 13:17:39;;;;;;;7.03;5.60;;;;;;;20.20;41.14;97854.28;10332352;28;20112;-59
2022/12/19 13:22:59;;;;;;;6.78;5.60;;;;;;;20.21;41.02;97845.88;10332589;28;20051;-58
2022/12/19 13:28:21;;;;;;;6.03;5.43;;;;;;;20.23;41.12;97854.47;10317637;28;20062;-59
2022/12/19 13:34:09;;;;;;;6.38;5.45;;;;;;;20.26;40.90;97847.66;10329153;28;20055;-59
2022/12/19 13:39:46;;;;;;;6.78;6.07;;;;;;;20.28;41.17;97853.56;10331437;28;20059;-59
2022/12/19 13:45:15;;;;;;;6.55;5.85;;;;;;;20.29;41.04;97847.84;10338829;28;20058;-59
2022/12/19 13:50:40;;;;;;;6.35;5.35;;;;;;;20.32;40.97;97858.06;10324167;28;20467;-59
2022/12/19 13:56:11;;;;;;;6.47;5.70;;;;;;;20.33;41.05;97842.63;10337055;28;20564;-58
2022/12/19 14:01:36;;;;;;;6.80;5.55;;;;;;;20.35;41.01;97841.22;10339901;28;20409;-58
2022/12/19 14:07:01;;;;;;;6.53;5.30;;;;;;;20.37;41.09;97838.22;10336836;28;20062;-59
2022/12/19 14:18:25;;;;;;;5.88;5.28;;;;;;;20.41;40.92;97844.63;10321253;28;20069;-59
2022/12/19 14:23:44;;;;;;;5.47;4.97;;;;;;;20.45;40.86;97844.81;10319203;28;20514;-58
2022/12/19 14:29:13;;;;;;;5.63;5.07;;;;;;;20.45;40.74;97850.22;10318157;28;20085;-59
2022/12/19 14:34:34;;;;;;;5.32;4.82;;;;;;;20.47;40.90;97854.22;10324127;28;20402;-58
2022/12/19 14:39:58;;;;;;;5.70;4.97;;;;;;;20.47;40.89;97851.53;10317133;28;20062;-58
2022/12/19 14:45:31;;;;;;;5.57;5.07;;;;;;;20.49;40.64;97846.59;10334630;28;20720;-58
2022/12/19 14:51:07;;;;;;;4.88;4.38;;;;;;;20.50;40.87;97844.69;10337569;28;20613;-59
2022/12/19 14:56:28;;;;;;;5.50;4.78;;;;;;;20.49;40.94;97849.31;10324407;28;20462;-59
2022/12/19 15:02:05;;;;;;;5.72;5.15;;;;;;;20.50;40.70;97841.97;10319669;28;20050;-59
2022/12/19 15:07:26;;;;;;;6.25;4.63;;;;;;;20.49;41.14;97840.41;10334286;28;20414;-59
2022/12/19 15:13:18;;;;;;;6.28;5.15;;;;;;;20.50;41.38;97823.03;10316014;28;20065;-59
2022/12/19 15:18:39;;;;;;;6.47;4.88;;;;;;;20.49;41.47;97824.94;10337041;28;20054;-58
2022/12/19 15:23:58;;;;;;;6.22;5.10;;;;;;;20.48;41.36;97827.94;10296373;28;20063;-57
2022/12/19 15:29:18;;;;;;;5.15;4.60;;;;;;;20.48;41.42;97827.94;10349592;28;20053;-60
2022/12/19 15:34:41;;;;;;;5.88;4.93;;;;;;;20.47;41.44;97820.94;10333584;28;20046;-58
2022/12/19 15:40:01;;;;;;;6.47;4.78;;;;;;;20.47;41.46;97810.91;10346039;28;20101;-58
2022/12/19 15:45:20;;;;;;;5.40;4.70;;;;;;;20.49;41.63;97797.09;10322483;28;20058;-57
2022/12/19 15:50:40;;;;;;;5.40;4.30;;;;;;;20.50;41.60;97798.66;10306301;28;20054;-59
2022/12/19 15:56:00;;;;;;;5.88;4.65;;;;;;;20.52;41.56;97788.34;10322394;28;20109;-58
2022/12/19 16:01:20;;;;;;;5.38;4.45;;;;;;;20.51;41.26;97794.88;10335014;28;20093;-58
2022/12/19 16:06:40;;;;;;;6.07;4.90;;;;;;;20.52;41.46;97801.88;10334328;28;20124;-59
2022/12/19 16:11:59;;;;;;;5.70;4.68;;;;;;;20.54;41.36;97822.13;10323240;28;20514;-58
2022/12/19 16:17:21;;;;;;;4.93;4.43;;;;;;;20.55;41.12;97812.88;10347489;28;20564;-59
2022/12/19 16:22:41;;;;;;;6.85;4.70;;;;;;;20.57;41.20;97809.09;10332641;28;20073;-58
2022/12/19 16:28:01;;;;;;;5.43;4.47;;;;;;;20.58;41.55;97800.66;10338318;28;20158;-58
2022/12/19 16:33:27;;;;;;;5.30;4.40;;;;;;;20.59;41.69;97796.88;10330770;28;20058;-58
2022/12/19 16:38:46;;;;;;;17.50;11.40;;;;;;;20.61;41.79;97800.06;10321907;28;20064;-60
2022/12/19 16:44:18;;;;;;;13.20;8.88;;;;;;;20.64;42.18;97795.94;10331412;28;20062;-59
2022/12/19 16:49:38;;;;;;;10.45;7.90;;;;;;;20.66;42.29;97788.31;10317091;28;20120;-62
2022/12/19 16:54:58;;;;;;;12.82;6.97;;;;;;;20.68;42.07;97784.22;10314762;28;20105;-60
2022/12/19 17:00:19;;;;;;;10.40;6.50;;;;;;;20.70;42.07;97789.31;10321537;28;20494;-59
2022/12/19 17:05:38;;;;;;;9.77;6.20;;;;;;;20.69;42.00;97785.78;10327712;28;20051;-59
2022/12/19 17:10:58;;;;;;;6.82;5.60;;;;;;;20.70;42.24;97784.69;10303947;28;20058;-58
2022/12/19 17:16:17;;;;;;;7.13;6.13;;;;;;;20.73;42.62;97788.69;10331528;28;20510;-58
2022/12/19 17:21:38;;;;;;;10.40;6.97;;;;;;;20.74;43.37;97793.00;10345243;28;20058;-58
2022/12/19 17:26:57;;;;;;;9.38;6.65;;;;;;;20.74;43.46;97798.44;10339825;28;20125;-56
2022/12/19 17:32:16;;;;;;;8.23;6.35;;;;;;;20.76;43.66;97784.56;10331986;28;20117;-58
2022/12/19 17:37:36;;;;;;;9.02;6.22;;;;;;;20.76;43.90;97793.50;10332118;28;20059;-58
2022/12/19 17:42:56;;;;;;;8.95;6.95;;;;;;;20.71;41.88;97777.38;10345023;28;20058;-58
2022/12/19 17:48:26;;;;;;;10.00;6.97;;;;;;;20.69;42.05;97785.78;10323356;28;20081;-58
2022/12/19 17:53:46;;;;;;;7.55;6.72;;;;;;;20.70;41.93;97787.41;10317319;28;20059;-59
2022/12/19 17:59:05;;;;;;;7.70;6.05;;;;;;;20.72;41.85;97804.16;10332032;28;20063;-58
2022/12/19 18:04:26;;;;;;;8.10;5.65;;;;;;;20.73;41.92;97791.41;10331800;28;20058;-58
2022/12/19 18:09:45;;;;;;;7.88;5.47;;;;;;;20.70;41.89;97794.75;10331145;28;20109;-60
2022/12/19 18:15:06;;;;;;;19.45;6.43;;;;;;;20.70;42.18;97792.03;10331383;28;20134;-52
2022/12/19 18:20:27;;;;;;;6.90;5.97;;;;;;;20.68;42.47;97764.44;10331193;28;20054;-58
2022/12/19 18:25:48;;;;;;;6.80;5.53;;;;;;;20.66;42.37;97772.88;10314053;28;20058;-60
2022/12/19 18:31:19;;;;;;;6.63;5.45;;;;;;;20.65;42.37;97776.69;10336871;28;20059;-56
2022/12/19 18:36:41;;;;;;;7.97;5.45;;;;;;;20.64;42.63;97764.28;10338390;28;20133;-57
2022/12/19 18:42:00;;;;;;;7.97;5.70;;;;;;;20.64;42.52;97768.88;10337274;28;20058;-57
2022/12/19 18:47:22;;;;;;;5.85;5.25;;;;;;;20.62;42.59;97761.06;10325093;28;20058;-58
2022/12/19 18:52:41;;;;;;;7.60;5.13;;;;;;;20.61;42.92;97726.19;10299839;28;20062;-58
2022/12/19 18:58:02;;;;;;;8.02;5.40;;;;;;;20.60;43.12;97702.91;10337080;28;20058;-57
2022/12/19 19:03:28;;;;;;;8.65;5.40;;;;;;;20.59;43.26;97696.69;10337295;28;20054;-56
2022/12/19 19:08:49;;;;;;;7.07;5.50;;;;;;;20.58;43.57;97710.50;10331652;28;20066;-57
2022/12/19 19:14:27;;;;;;;6.72;4.97;;;;;;;20.55;43.50;97734.38;10335867;28;20058;-56
2022/12/19 19:19:46;;;;;;;8.18;5.38;;;;;;;20.56;43.94;97737.88;10337179;28;20445;-58
2022/12/19 19:25:06;;;;;;;7.03;4.90;;;;;;;20.54;44.17;97729.28;10326742;28;20062;-57
2022/12/19 19:30:26;;;;;;;8.35;4.97;;;;;;;20.52;44.18;97747.72;10344643;28;20056;-57
2022/12/19 19:35:47;;;;;;;11.50;5.40;;;;;;;20.52;44.21;97747.72;10336187;28;20050;-56
2022/12/19 19:41:08;;;;;;;7.60;5.20;;;;;;;20.51;44.33;97736.13;10306030;28;20137;-58
2022/12/19 19:46:28;;;;;;;13.38;5.25;;;;;;;20.49;44.84;97722.09;10335611;28;20418;-58
2022/12/19 19:51:47;;;;;;;8.68;5.30;;;;;;;20.48;44.76;97727.81;10348584;28;20421;-56
2022/12/19 19:57:07;;;;;;;6.30;5.10;;;;;;;20.43;43.24;97687.34;10335791;28;20085;-55
2022/12/19 20:02:26;;;;;;;9.25;5.75;;;;;;;20.41;43.82;97663.28;10335062;28;20054;-57
2022/12/19 20:07:46;;;;;;;8.57;5.25;;;;;;;20.40;44.05;97663.59;10335314;28;20085;-56
2022/12/19 20:13:05;;;;;;;8.75;5.20;;;;;;;20.39;43.96;97697.19;10334632;28;20054;-56
2022/12/19 20:18:25;;;;;;;7.93;5.05;;;;;;;20.38;44.08;97711.81;10334671;28;20078;-55
2022/12/19 20:23:45;;;;;;;8.55;5.00;;;;;;;20.37;44.09;97721.84;10325354;28;20129;-57
2022/12/19 20:29:07;;;;;;;6.82;4.80;;;;;;;20.35;44.13;97724.06;10346731;28;20054;-57
2022/12/19 20:34:27;;;;;;;15.68;7.82;;;;;;;20.32;44.12;97720.03;10334183;28;20391;-56
2022/12/19 20:39:46;;;;;;;14.00;7.25;;;;;;;20.30;44.21;97743.91;10333082;28;20578;-56
2022/12/19 20:45:06;;;;;;;10.43;5.90;;;;;;;20.27;43.97;97739.13;10333679;28;20104;-54
2022/12/19 20:50:26;;;;;;;10.93;5.68;;;;;;;20.24;43.70;97737.00;10332948;28;20466;-56
2022/12/19 20:55:57;;;;;;;9.13;5.45;;;;;;;20.23;43.70;97735.44;10346524;28;20113;-58
2022/12/19 21:01:19;;;;;;;9.25;5.32;;;;;;;20.20;43.78;97733.31;10346409;28;20057;-58
2022/12/19 21:06:40;;;;;;;8.35;5.28;;;;;;;20.19;43.62;97747.97;10333482;28;20063;-58
2022/12/19 21:11:59;;;;;;;8.02;5.40;;;;;;;20.16;43.65;97732.34;10330008;28;20074;-58
2022/12/19 21:17:19;;;;;;;11.05;4.97;;;;;;;20.14;43.72;97731.84;10332594;28;20120;-58
2022/12/19 21:22:38;;;;;;;8.40;5.40;;;;;;;20.12;43.89;97707.78;10344948;28;20050;-58
2022/12/19 21:27:58;;;;;;;6.90;4.78;;;;;;;20.10;43.81;97695.69;10323008;28;20080;-53
2022/12/19 21:33:17;;;;;;;8.43;4.72;;;;;;;20.07;43.76;97691.69;10331830;28;20058;-56
2022/12/19 21:38:37;;;;;;;8.00;5.10;;;;;;;20.06;43.91;97700.91;10332463;28;20062;-54
2022/12/19 21:43:57;;;;;;;8.15;5.00;;;;;;;20.04;44.18;97705.03;10345569;28;20510;-56
2022/12/19 21:49:16;;;;;;;5.85;4.35;;;;;;;20.03;43.91;97703.41;10320215;28;20066;-56
2022/12/19 21:54:36;;;;;;;7.32;4.82;;;;;;;20.00;44.00;97699.41;10331962;28;20061;-56
2022/12/19 21:59:56;;;;;;;7.03;4.50;;;;;;;19.98;43.98;97703.53;10331863;28;20063;-56
2022/12/19 22:05:15;;;;;;;9.70;5.28;;;;;;;19.97;43.94;97704.63;10348923;28;20130;-56
2022/12/19 22:10:37;;;;;;;6.25;4.43;;;;;;;19.95;43.94;97702.22;10339548;28;20062;-56
2022/12/19 22:16:03;;;;;;;8.90;4.90;;;;;;;19.92;44.06;97702.84;10352152;28;20050;-56
2022/12/19 22:21:23;;;;;;;7.10;4.53;;;;;;;19.90;43.85;97692.34;10339322;28;20054;-56
2022/12/19 22:26:42;;;;;;;6.57;4.78;;;;;;;19.87;43.98;97682.13;10333009;28;20059;-56
2022/12/19 22:32:03;;;;;;;7.00;5.03;;;;;;;19.85;44.16;97660.00;10338589;28;20062;-56
2022/12/19 22:37:22;;;;;;;6.38;4.30;;;;;;;19.85;44.15;97661.91;10338378;28;20525;-56
2022/12/19 22:42:42;;;;;;;6.05;4.30;;;;;;;19.81;44.02;97659.00;10338026;28;20065;-56
2022/12/19 22:48:01;;;;;;;4.88;4.28;;;;;;;19.80;43.89;97679.06;10338273;28;20062;-56
2022/12/19 22:53:20;;;;;;;5.70;4.70;;;;;;;19.77;43.83;97673.44;10351447;28;20073;-55
2022/12/19 22:58:42;;;;;;;6.72;4.68;;;;;;;19.74;43.73;97674.84;10337745;28;20132;-56
2022/12/19 23:04:02;;;;;;;6.80;4.38;;;;;;;19.72;43.74;97656.22;10337818;28;20054;-56
2022/12/19 23:09:22;;;;;;;5.97;4.05;;;;;;;19.71;43.64;97653.81;10337505;28;20058;-56
2022/12/19 23:14:41;;;;;;;5.57;4.45;;;;;;;19.69;43.58;97647.91;10336686;28;20058;-56
2022/12/19 23:20:01;;;;;;;4.63;3.90;;;;;;;19.67;43.32;97652.81;10349859;28;20057;-56
2022/12/19 23:25:21;;;;;;;5.45;4.13;;;;;;;19.65;43.49;97644.19;10325060;28;20058;-56
2022/12/19 23:30:40;;;;;;;4.72;3.67;;;;;;;19.63;43.38;97630.19;10335926;28;20066;-56
2022/12/19 23:36:00;;;;;;;5.50;4.05;;;;;;;19.61;43.49;97644.00;10336812;28;20062;-56
2022/12/19 23:41:20;;;;;;;7.00;4.15;;;;;;;19.59;43.49;97640.03;10336399;28;20069;-56
2022/12/19 23:46:40;;;;;;;5.13;3.47;;;;;;;19.58;43.44;97635.69;10349158;28;20506;-56
2022/12/19 23:51:59;;;;;;;4.53;3.80;;;;;;;19.55;43.40;97623.59;10346300;28;20065;-56
2022/12/19 23:57:19;;;;;;;5.38;4.18;;;;;;;19.53;43.47;97628.50;10335081;28;20062;-56
